Latest Weather Observations for Sydney Harbour

IDN60801

Issued at 6:35 am EDT Wednesday 22 October 2014 (issued every 30 minutes, with the page automatically refreshed every 10 minutes)

About weather observations | Map of weather stations | Latest weather observations for NSW | Other Formats
Station Details ID: 066196 Name: WEDDING CAKE WEST Lat: -33.84 Lon: 151.26 Height: 6.0 m
Data from the previous 72 hours. | See also: Recent months for locations in New South Wales
Date/Time
EDT
Temp
°C
App
Temp
°C
Dew
Point
Rel
Hum
%
Delta-T
°C
Wind Press
QNH
hPa
Press
MSL
hPa
Rain
since 9 am
mm
Dir
 
Spd
km/h
Gust
km/h
Spd
kts
Gust
kts
22/06:30am 15.8 - - - - WNW 11 13 6 7 - - -
22/06:00am 15.7 - - - - WNW 11 13 6 7 - - -
22/05:30am 15.7 - - - - NW 9 11 5 6 - - -
22/05:00am 15.8 - - - - WNW 11 11 6 6 - - -
22/04:30am 15.5 - - - - WNW 11 11 6 6 - - -
22/04:00am 15.3 - - - - NW 13 15 7 8 - - -
22/03:30am 15.6 - - - - NW 7 11 4 6 - - -
22/03:00am 15.6 - - - - WNW 9 11 5 6 - - -
22/02:30am 16.1 - - - - NNE 9 11 5 6 - - -
22/02:00am 16.1 - - - - NE 9 11 5 6 - - -
22/01:30am 15.8 - - - - NE 7 7 4 4 - - -
22/01:00am 15.5 - - - - CALM 0 0 0 0 - - -
22/12:30am 15.3 - - - - NE 4 6 2 3 - - -
22/12:00am 15.6 - - - - NE 7 9 4 5 - - -
 
Date/Time
EDT
Temp
°C
App
Temp
°C
Dew
Point
Rel
Hum
%
Delta-T
°C
Wind Press
QNH
hPa
Press
MSL
hPa
Rain
since 9 am
mm
Dir
 
Spd
km/h
Gust
km/h
Spd
kts
Gust
kts
21/11:30pm 15.1 - - - - NE 35 41 19 22 - - -
21/11:00pm 15.7 - - - - NE 32 37 17 20 - - -
21/10:30pm 16.8 - - - - NNE 17 20 9 11 - - -
21/10:00pm 16.8 - - - - NE 20 24 11 13 - - -
21/09:30pm 16.8 - - - - ENE 19 24 10 13 - - -
21/09:00pm 16.8 - - - - ENE 22 28 12 15 - - -
21/08:30pm 16.7 - - - - NE 20 26 11 14 - - -
21/08:00pm 16.7 - - - - NE 20 28 11 15 - - -
21/07:30pm 16.8 - - - - NE 19 22 10 12 - - -
21/07:00pm 16.6 - - - - NE 19 20 10 11 - - -
21/06:30pm 16.6 - - - - ENE 19 22 10 12 - - -
21/06:00pm 16.6 - - - - ENE 20 22 11 12 - - -
21/05:30pm 16.8 - - - - E 17 22 9 12 - - -
21/05:00pm 17.0 - - - - ENE 15 19 8 10 - - -
21/04:30pm 16.8 - - - - ENE 17 20 9 11 - - -
21/04:00pm 16.9 - - - - ENE 15 20 8 11 - - -
21/03:30pm 17.0 - - - - ENE 19 24 10 13 - - -
21/03:00pm 17.0 - - - - ENE 17 20 9 11 - - -
21/02:30pm 17.3 - - - - ENE 15 20 8 11 - - -
21/02:00pm 17.3 - - - - E 17 22 9 12 - - -
21/01:30pm 17.3 - - - - E 19 26 10 14 - - -
21/01:00pm 17.3 - - - - E 20 26 11 14 - - -
21/12:30pm 17.3 - - - - E 17 24 9 13 - - -
21/12:00pm 17.3 - - - - E 13 19 7 10 - - -
21/11:30am 17.1 - - - - E 17 22 9 12 - - -
21/11:00am 17.2 - - - - E 17 22 9 12 - - -
21/10:30am 17.1 - - - - ESE 19 20 10 11 - - -
21/10:00am 17.1 - - - - E 17 20 9 11 - - -
21/09:30am 17.1 - - - - E 17 20 9 11 - - -
21/09:00am 16.9 - - - - E 19 26 10 14 - - -
21/08:30am 16.9 - - - - E 17 20 9 11 - - -
21/08:00am 16.8 - - - - ESE 15 24 8 13 - - -
21/07:30am 16.8 - - - - ESE 13 22 7 12 - - -
21/07:00am 16.7 - - - - SE 13 17 7 9 - - -
21/06:30am 16.6 - - - - E 19 30 10 16 - - -
21/06:00am 16.6 - - - - SE 20 32 11 17 - - -
21/05:30am 16.4 - - - - ESE 15 22 8 12 - - -
21/05:00am 16.3 - - - - ESE 17 28 9 15 - - -
21/04:30am 16.4 - - - - E 13 22 7 12 - - -
21/04:00am 16.4 - - - - SSE 17 32 9 17 - - -
21/03:30am 16.3 - - - - SSE 7 17 4 9 - - -
21/03:00am 16.4 - - - - SE 9 15 5 8 - - -
21/02:30am 16.2 - - - - SSE 15 30 8 16 - - -
21/02:00am 16.9 - - - - ESE 19 24 10 13 - - -
21/01:30am 17.0 - - - - ESE 19 30 10 16 - - -
21/01:00am 16.9 - - - - ESE 19 24 10 13 - - -
21/12:30am 17.0 - - - - ESE 17 26 9 14 - - -
21/12:00am 16.2 - - - - SSE 20 30 11 16 - - -
 
Date/Time
EDT
Temp
°C
App
Temp
°C
Dew
Point
Rel
Hum
%
Delta-T
°C
Wind Press
QNH
hPa
Press
MSL
hPa
Rain
since 9 am
mm
Dir
 
Spd
km/h
Gust
km/h
Spd
kts
Gust
kts
20/11:30pm 16.9 - - - - ESE 22 30 12 16 - - -
20/11:00pm 16.9 - - - - ESE 22 30 12 16 - - -
20/10:30pm 17.4 - - - - ESE 19 24 10 13 - - -
20/10:00pm 16.5 - - - - SE 24 32 13 17 - - -
20/09:30pm 17.2 - - - - SE 20 33 11 18 - - -
20/09:00pm 16.9 - - - - SE 13 19 7 10 - - -
20/08:30pm 16.8 - - - - SSE 19 24 10 13 - - -
20/08:00pm 17.1 - - - - ESE 17 22 9 12 - - -
20/07:30pm 16.4 - - - - SSE 26 37 14 20 - - -
20/07:00pm 17.2 - - - - SSE 22 30 12 16 - - -
20/06:30pm 17.3 - - - - SSE 24 35 13 19 - - -
20/06:00pm 17.4 - - - - SSE 15 22 8 12 - - -
20/05:30pm 17.2 - - - - S 22 33 12 18 - - -
20/05:00pm 17.0 - - - - S 30 46 16 25 - - -
20/04:56pm 17.1 - - - - S 28 46 15 25 - - -
20/04:30pm 16.8 - - - - S 30 44 16 24 - - -
20/04:00pm 17.0 - - - - S 28 37 15 20 - - -
20/03:30pm 17.5 - - - - S 26 33 14 18 - - -
20/03:00pm 17.0 - - - - S 28 37 15 20 - - -
20/02:30pm 17.1 - - - - S 32 43 17 23 - - -
20/02:00pm 17.8 - - - - S 32 41 17 22 - - -
20/01:30pm 17.9 - - - - S 30 39 16 21 - - -
20/01:00pm 18.2 - - - - S 26 37 14 20 - - -
20/12:30pm 17.3 - - - - S 35 48 19 26 - - -
20/12:00pm 18.2 - - - - S 43 54 23 29 - - -
20/11:30am 17.8 - - - - S 43 54 23 29 - - -
20/11:17am 17.9 - - - - S 37 56 20 30 - - -
20/11:00am 17.8 - - - - S 39 50 21 27 - - -
20/10:30am 17.7 - - - - S 43 56 23 30 - - -
20/10:00am 17.7 - - - - S 41 54 22 29 - - -
20/09:55am 17.7 - - - - S 43 61 23 33 - - -
20/09:30am 18.0 - - - - S 44 57 24 31 - - -
20/09:03am 18.0 - - - - S 46 65 25 35 - - -
20/09:00am 18.0 - - - - S 48 61 26 33 - - -
20/08:32am 18.2 - - - - S 44 63 24 34 - - -
20/08:30am 18.2 - - - - S 46 63 25 34 - - -
20/08:00am 18.0 - - - - S 50 67 27 36 - - -
20/07:36am 18.2 - - - - S 46 69 25 37 - - -
20/07:30am 18.3 - - - - S 46 63 25 34 - - -
20/07:00am 18.2 - - - - S 50 69 27 37 - - -
20/06:55am 18.3 - - - - S 50 69 27 37 - - -
20/06:30am 18.5 - - - - S 56 72 30 39 - - -
20/06:08am 19.2 - - - - S 61 80 33 43 - - -
20/06:00am 19.2 - - - - SSW 41 59 22 32 - - -
20/05:42am 18.2 - - - - SW 28 44 15 24 - - -
20/05:30am 17.2 - - - - SW 20 22 11 12 - - -
20/05:00am 17.0 - - - - CALM 0 0 0 0 - - -
20/04:30am 16.6 - - - - N 2 6 1 3 - - -
20/04:00am 17.3 - - - - CALM 0 0 0 0 - - -
20/03:30am 17.2 - - - - N 4 7 2 4 - - -
20/03:00am 17.0 - - - - N 7 11 4 6 - - -
20/02:30am 17.0 - - - - N 2 7 1 4 - - -
20/02:00am 17.8 - - - - CALM 0 0 0 0 - - -
20/01:30am 18.0 - - - - N 4 7 2 4 - - -
20/01:00am 18.0 - - - - N 9 9 5 5 - - -
20/12:30am 18.9 - - - - N 9 13 5 7 - - -
20/12:00am 19.2 - - - - N 20 24 11 13 - - -
 
Date/Time
EDT
Temp
°C
App
Temp
°C
Dew
Point
Rel
Hum
%
Delta-T
°C
Wind Press
QNH
hPa
Press
MSL
hPa
Rain
since 9 am
mm
Dir
 
Spd
km/h
Gust
km/h
Spd
kts
Gust
kts
19/11:30pm 19.1 - - - - N 22 26 12 14 - - -
19/11:00pm 18.8 - - - - N 19 22 10 12 - - -
19/10:30pm 18.8 - - - - N 22 26 12 14 - - -
19/10:00pm 18.8 - - - - N 26 32 14 17 - - -
19/09:30pm 19.1 - - - - N 28 35 15 19 - - -
19/09:00pm 19.3 - - - - N 32 39 17 21 - - -
19/08:30pm 19.2 - - - - N 37 46 20 25 - - -
19/08:00pm 19.2 - - - - N 39 50 21 27 - - -
19/07:30pm 19.1 - - - - NNE 39 50 21 27 - - -
19/07:00pm 19.1 - - - - N 41 46 22 25 - - -
19/06:30pm 19.2 - - - - NNE 37 44 20 24 - - -
19/06:00pm 19.3 - - - - NNE 33 43 18 23 - - -
19/05:30pm 19.2 - - - - NNE 33 41 18 22 - - -
19/05:00pm 19.2 - - - - NNE 39 44 21 24 - - -
19/04:30pm 19.2 - - - - NNE 41 46 22 25 - - -
19/04:00pm 19.2 - - - - NNE 41 46 22 25 - - -
19/03:30pm 19.2 - - - - NNE 39 46 21 25 - - -
19/03:00pm 19.1 - - - - NNE 37 43 20 23 - - -
19/02:30pm 19.1 - - - - NNE 35 39 19 21 - - -
19/02:00pm 19.0 - - - - NNE 37 43 20 23 - - -
19/01:30pm 18.7 - - - - NNE 33 37 18 20 - - -
19/01:00pm 18.5 - - - - NNE 32 35 17 19 - - -
19/12:30pm 18.2 - - - - NNE 30 33 16 18 - - -
19/12:00pm 18.4 - - - - NNE 26 32 14 17 - - -
19/11:30am 18.4 - - - - NNE 26 28 14 15 - - -
19/11:00am 18.0 - - - - NNE 22 26 12 14 - - -
19/10:30am 18.1 - - - - NNE 13 15 7 8 - - -
19/10:00am 18.2 - - - - NNE 11 15 6 8 - - -
19/09:30am 17.9 - - - - NNW 13 17 7 9 - - -
19/09:00am 17.1 - - - - NNW 13 17 7 9 - - -
19/08:30am 16.4 - - - - N 11 17 6 9 - - -
19/08:00am 15.9 - - - - N 11 13 6 7 - - -
19/07:30am 15.1 - - - - N 11 13 6 7 - - -
19/07:00am 14.4 - - - - N 11 13 6 7 - - -

Other Formats:

Comma delimited format used in spreadsheet applications
http://www.bom.gov.au/fwo/IDN60801/IDN60801.95766.axf

JavaScript Object Notation format (JSON) in row-major order
http://www.bom.gov.au/fwo/IDN60801/IDN60801.95766.json